Details for WeGo Airways at EGKK




Go Back


Latest METAR
Local Time

EGKK 241320Z 06014KT CAVOK 05/M04 Q1020

24/02/2018, 13:40:25

Description
Results
WeGo Airways Logo
Number of Pilots based at EGKK
7 Pilots Based here
Number of WeGo Airways Flights Departed from EGKK
16 Flights Departed
Number of WeGo Airways Flights Arrived at EGKK
10 Flights Arrived
Number of WeGo Airways Schedules Departing from EGKK
10 Schedules
Number of WeGo Airways Schedules Arriving at EGKK
6 Schedules
Number of WeGo Airways Schedules Departing from EGKK availible today
10 Schedules Today
Number of WeGo Airways Schedules Arriving at EGKK availible today
6 Schedules Today
Average Landing Rate at EGKK
-231 fpm
WeGo Airways Average Landing Rate at EGKK
-258 fpm
Total Fuel Purchased at EGKK by WeGo Airways
71,481.14 kgs / 157,587.32 lbs

Pilots Based at EGKK


Pilot ID
Pilot Name
Pilot Rank
No. of Flights
No. of Flying Hours
Dan Symons
107
380.28
George Jones
35
95.53
Maurice Lyon
41
233.42
Matthew Smith
93
700.29
Pete Desjardins
1
1.59
William Shaw
180
430.37
Clive Kent
0
0
Content